Time;durP1;ratioP1;P1;durP2;ratioP2;P2;SDS_P1;SDS_P2;PMS_P1;PMS_P2;Temp;Humidity;BMP_temperature;BMP_pressure;BME280_temperature;BME280_humidity;BME280_pressure;Samples;Min_cycle;Max_cycle;Signal;HPM_P1;HPM_P2
2023/08/06 00:00:22;;;;;;;;;;;;;;;23.67;50.03;100696.69;5050504;28;19977;-72
2023/08/06 00:02:48;;;;;;;;;;;;;;;23.66;50.06;100695.03;5090978;27;19949;-72
2023/08/06 00:05:13;;;;;;;;;;;;;;;23.67;50.10;100699.34;5051922;28;19933;-73
2023/08/06 00:07:39;;;;;;;;;;;;;;;23.65;49.86;100691.56;5053560;28;20056;-73
2023/08/06 00:10:04;;;;;;;;;;;;;;;23.68;49.88;100693.81;5058576;28;19985;-72
2023/08/06 00:12:30;;;;;;;;;;;;;;;23.64;50.05;100686.47;5054176;28;19938;-73
2023/08/06 00:14:55;;;;;;;;;;;;;;;23.67;50.13;100686.84;5054603;28;19951;-73
2023/08/06 00:17:20;;;;;;;;;;;;;;;23.69;49.92;100678.66;5060461;28;19936;-72
2023/08/06 00:19:46;;;;;;;;;;;;;;;23.66;50.19;100674.59;5048633;28;19933;-73
2023/08/06 00:22:11;;;;;;;;;;;;;;;23.64;50.00;100674.00;5055247;28;20360;-72
2023/08/06 00:24:36;;;;;;;;;;;;;;;23.66;49.96;100668.47;5062186;28;20310;-72
2023/08/06 00:27:02;;;;;;;;;;;;;;;23.64;49.99;100673.16;5048709;28;19926;-72
2023/08/06 00:29:27;;;;;;;;;;;;;;;23.67;49.89;100678.06;5050918;28;20108;-71
2023/08/06 00:31:53;;;;;;;;;;;;;;;23.62;50.04;100683.19;5055520;28;19934;-72
2023/08/06 00:34:18;;;;;;;;;;;;;;;23.64;50.10;100667.84;5060815;28;20342;-70
2023/08/06 00:36:43;;;;;;;;;;;;;;;23.63;50.05;100680.34;5051588;28;19942;-72
2023/08/06 00:39:09;;;;;;;;;;;;;;;23.65;49.98;100672.97;5052700;28;19936;-71
2023/08/06 00:41:34;;;;;;;;;;;;;;;23.66;49.87;100669.28;5056970;28;20050;-71
2023/08/06 00:43:59;;;;;;;;;;;;;;;23.61;50.04;100671.75;5058634;28;20536;-72
2023/08/06 00:46:25;;;;;;;;;;;;;;;23.64;50.00;100667.84;5055942;28;19924;-72
2023/08/06 00:48:52;;;;;;;;;;;;;;;23.62;49.91;100676.03;5057618;28;19952;-73
2023/08/06 00:51:17;;;;;;;;;;;;;;;23.36;50.17;100642.34;5057928;28;19986;-72
2023/08/06 00:53:43;;;;;;;;;;;;;;;23.60;49.96;100669.31;5054403;28;19965;-72
2023/08/06 00:56:09;;;;;;;;;;;;;;;23.62;49.98;100669.91;5084402;27;20026;-71
2023/08/06 00:58:35;;;;;;;;;;;;;;;23.58;50.01;100674.84;5046186;28;20851;-71
2023/08/06 01:01:00;;;;;;;;;;;;;;;23.60;50.09;100664.00;5068423;28;19933;-72
2023/08/06 01:03:27;;;;;;;;;;;;;;;23.63;49.95;100666.22;5051174;28;20375;-72
2023/08/06 01:05:52;;;;;;;;;;;;;;;23.58;49.95;100666.84;5057743;28;19926;-72
2023/08/06 01:08:30;;;;;;;;;;;;;;;23.61;49.83;100674.41;5057184;28;20326;-71
2023/08/06 01:11:01;;;;;;;;;;;;;;;23.60;49.94;100664.81;5054825;28;20011;-72
2023/08/06 01:13:53;;;;;;;;;;;;;;;23.56;50.02;100668.88;5080067;27;19985;-71
2023/08/06 01:16:21;;;;;;;;;;;;;;;23.62;49.84;100656.63;5049409;28;19975;-71
2023/08/06 01:18:49;;;;;;;;;;;;;;;23.61;49.86;100658.47;5052512;28;19931;-70
2023/08/06 01:21:14;;;;;;;;;;;;;;;23.60;49.83;100666.66;5047180;28;19994;-72
2023/08/06 01:23:40;;;;;;;;;;;;;;;23.58;50.02;100658.06;5048232;28;19960;-72
2023/08/06 01:26:11;;;;;;;;;;;;;;;23.55;49.92;100669.91;5047167;28;19932;-71
2023/08/06 01:28:45;;;;;;;;;;;;;;;23.57;49.96;100662.56;5057090;28;20021;-72
2023/08/06 01:31:16;;;;;;;;;;;;;;;23.57;50.02;100661.75;5057175;28;19929;-72
2023/08/06 01:33:44;;;;;;;;;;;;;;;23.59;50.02;100655.19;5055318;28;20404;-71
2023/08/06 01:36:10;;;;;;;;;;;;;;;23.55;50.26;100655.78;5050280;28;19936;-73
2023/08/06 01:38:35;;;;;;;;;;;;;;;23.56;49.95;100657.44;5082859;28;19936;-71
2023/08/06 01:41:01;;;;;;;;;;;;;;;23.55;50.06;100645.16;5052354;28;19957;-71
2023/08/06 01:43:26;;;;;;;;;;;;;;;23.54;50.06;100664.81;5054006;28;20008;-71
2023/08/06 01:45:51;;;;;;;;;;;;;;;23.56;50.13;100657.44;5072246;28;19998;-70
2023/08/06 01:48:17;;;;;;;;;;;;;;;23.55;49.97;100655.78;5055510;28;19980;-72
2023/08/06 01:50:42;;;;;;;;;;;;;;;23.54;50.24;100656.81;5058166;28;20027;-72
2023/08/06 01:53:08;;;;;;;;;;;;;;;23.52;50.00;100663.16;5052458;28;19920;-71
2023/08/06 01:55:33;;;;;;;;;;;;;;;23.54;49.98;100662.97;5046094;28;19933;-71
2023/08/06 01:57:59;;;;;;;;;;;;;;;23.55;49.98;100655.78;5057442;28;20382;-72
2023/08/06 02:00:24;;;;;;;;;;;;;;;23.53;50.00;100656.00;5054196;28;20422;-71
2023/08/06 02:02:50;;;;;;;;;;;;;;;23.53;49.99;100648.03;5048080;28;19932;-72
2023/08/06 02:05:15;;;;;;;;;;;;;;;23.57;50.03;100648.47;5052649;28;19940;-71
2023/08/06 02:07:41;;;;;;;;;;;;;;;23.51;49.99;100648.22;5047100;28;19959;-70
2023/08/06 02:10:06;;;;;;;;;;;;;;;23.51;49.99;100632.28;5050272;28;19980;-71
2023/08/06 02:12:32;;;;;;;;;;;;;;;23.52;50.11;100627.81;5050082;28;20345;-70
2023/08/06 02:14:57;;;;;;;;;;;;;;;23.52;50.00;100641.09;5084592;28;19938;-70
2023/08/06 02:17:23;;;;;;;;;;;;;;;23.52;49.94;100635.78;5053050;28;19933;-72
2023/08/06 02:19:48;;;;;;;;;;;;;;;23.52;49.96;100635.78;5054505;28;19927;-71
2023/08/06 02:22:13;;;;;;;;;;;;;;;23.53;50.00;100634.75;5058147;28;19945;-70
2023/08/06 02:24:39;;;;;;;;;;;;;;;23.49;50.14;100633.50;5052325;28;21053;-73
2023/08/06 02:27:04;;;;;;;;;;;;;;;23.49;50.00;100623.69;5053626;28;19939;-71
2023/08/06 02:29:29;;;;;;;;;;;;;;;23.50;49.98;100632.47;5051507;28;19986;-71
2023/08/06 02:31:55;;;;;;;;;;;;;;;23.50;50.13;100638.63;5051787;28;19935;-71
2023/08/06 02:34:20;;;;;;;;;;;;;;;23.49;50.16;100622.88;5048130;28;19944;-72
2023/08/06 02:36:45;;;;;;;;;;;;;;;23.49;49.92;100621.03;5052211;28;19974;-71
2023/08/06 02:39:11;;;;;;;;;;;;;;;23.50;50.08;100629.81;5049019;28;19936;-68
2023/08/06 02:41:36;;;;;;;;;;;;;;;23.47;49.96;100615.13;5056304;28;20279;-72
2023/08/06 02:44:02;;;;;;;;;;;;;;;23.46;49.98;100616.16;5049810;28;20309;-70
2023/08/06 02:46:27;;;;;;;;;;;;;;;23.45;50.16;100613.69;5051405;28;20339;-71
2023/08/06 02:48:53;;;;;;;;;;;;;;;23.45;50.17;100611.84;5051876;28;19984;-71
2023/08/06 02:51:18;;;;;;;;;;;;;;;23.46;50.01;100612.66;5053945;28;20757;-72
2023/08/06 02:53:44;;;;;;;;;;;;;;;23.44;49.96;100610.22;5052147;28;20237;-71
2023/08/06 02:56:12;;;;;;;;;;;;;;;23.48;50.13;100613.28;5089598;27;19945;-71
2023/08/06 02:58:56;;;;;;;;;;;;;;;23.45;50.11;100601.22;5091317;27;19931;-70
2023/08/06 03:01:45;;;;;;;;;;;;;;;23.46;50.13;100596.72;5049180;28;19936;-71
2023/08/06 03:04:18;;;;;;;;;;;;;;;23.44;50.11;100591.63;5054363;28;19938;-71
2023/08/06 03:06:44;;;;;;;;;;;;;;;23.46;50.00;100581.59;5053638;28;19939;-72
2023/08/06 03:09:10;;;;;;;;;;;;;;;23.45;50.23;100581.81;5073294;28;20565;-70
2023/08/06 03:11:35;;;;;;;;;;;;;;;23.43;50.06;100586.53;5061198;28;20328;-71
2023/08/06 03:14:06;;;;;;;;;;;;;;;23.44;49.96;100590.81;5057031;28;19933;-72
2023/08/06 03:16:31;;;;;;;;;;;;;;;23.44;50.26;100585.50;5056723;28;19936;-71
2023/08/06 03:18:58;;;;;;;;;;;;;;;23.45;49.93;100581.81;5062056;28;19932;-72
2023/08/06 03:21:24;;;;;;;;;;;;;;;23.38;50.13;100581.03;5057079;28;20378;-73
2023/08/06 03:23:50;;;;;;;;;;;;;;;23.42;49.99;100571.59;5057204;28;19945;-71
2023/08/06 03:26:19;;;;;;;;;;;;;;;23.40;50.08;100573.66;5092293;27;19932;-71
2023/08/06 03:28:45;;;;;;;;;;;;;;;23.44;50.06;100581.00;5056223;28;20016;-71
2023/08/06 03:31:11;;;;;;;;;;;;;;;23.40;50.17;100576.31;5064412;28;19970;-71
2023/08/06 03:33:41;;;;;;;;;;;;;;;23.46;49.96;100576.28;5060313;28;19924;-72
2023/08/06 03:36:11;;;;;;;;;;;;;;;23.42;50.08;100579.56;5051461;28;19943;-71
2023/08/06 03:38:36;;;;;;;;;;;;;;;23.39;50.18;100570.19;5060894;28;19944;-72
2023/08/06 03:41:05;;;;;;;;;;;;;;;23.42;50.18;100576.91;5066622;28;19969;-72
2023/08/06 03:43:30;;;;;;;;;;;;;;;23.39;50.36;100569.38;5057146;28;20309;-71
2023/08/06 03:45:56;;;;;;;;;;;;;;;23.40;50.35;100566.50;5057328;28;20027;-70
2023/08/06 03:48:22;;;;;;;;;;;;;;;23.41;50.22;100572.63;5055349;28;19938;-71
2023/08/06 03:50:47;;;;;;;;;;;;;;;23.40;50.24;100569.16;5053258;28;19994;-72
2023/08/06 03:53:15;;;;;;;;;;;;;;;23.43;49.96;100570.56;5083171;27;20030;-72
2023/08/06 03:55:40;;;;;;;;;;;;;;;23.39;50.06;100567.53;5081041;27;20021;-71
2023/08/06 03:58:06;;;;;;;;;;;;;;;23.39;50.09;100575.50;5060791;28;19982;-71
2023/08/06 04:00:31;;;;;;;;;;;;;;;23.42;49.95;100572.41;5057377;28;20522;-71
2023/08/06 04:02:57;;;;;;;;;;;;;;;23.39;49.99;100574.69;5061890;28;20058;-72
2023/08/06 04:05:22;;;;;;;;;;;;;;;23.38;50.21;100576.53;5057675;28;21644;-72
2023/08/06 04:07:48;;;;;;;;;;;;;;;23.41;50.22;100575.28;5054427;28;20029;-72
2023/08/06 04:10:13;;;;;;;;;;;;;;;23.36;50.30;100569.78;5066248;28;19954;-71
2023/08/06 04:12:39;;;;;;;;;;;;;;;23.37;50.38;100580.22;5060307;28;19927;-71
2023/08/06 04:15:05;;;;;;;;;;;;;;;23.36;50.13;100578.56;5052151;28;20067;-71
2023/08/06 04:17:30;;;;;;;;;;;;;;;23.38;50.08;100573.88;5058907;28;20068;-72
2023/08/06 04:19:58;;;;;;;;;;;;;;;23.37;50.26;100574.91;5054060;28;19980;-71
2023/08/06 04:22:23;;;;;;;;;;;;;;;23.35;50.18;100574.28;5055376;28;20577;-71
2023/08/06 04:24:49;;;;;;;;;;;;;;;23.37;50.14;100569.56;5054664;28;19943;-71
2023/08/06 04:27:14;;;;;;;;;;;;;;;23.37;50.18;100569.56;5049876;28;19931;-72
2023/08/06 04:29:41;;;;;;;;;;;;;;;23.37;49.97;100576.72;5067866;28;20446;-71
2023/08/06 04:32:08;;;;;;;;;;;;;;;23.32;50.28;100571.22;5081232;27;19934;-71
2023/08/06 04:34:34;;;;;;;;;;;;;;;23.26;50.55;100572.06;5078110;27;19937;-72
2023/08/06 04:37:00;;;;;;;;;;;;;;;23.23;50.50;100575.94;5055485;28;19941;-71
2023/08/06 04:39:26;;;;;;;;;;;;;;;23.25;50.33;100578.41;5053842;28;19962;-71
2023/08/06 04:41:52;;;;;;;;;;;;;;;23.18;50.54;100576.56;5085743;27;19960;-71
2023/08/06 04:44:18;;;;;;;;;;;;;;;23.19;50.59;100574.75;5080558;27;19976;-71
2023/08/06 04:46:43;;;;;;;;;;;;;;;23.19;50.42;100577.41;5088183;27;19970;-71
2023/08/06 04:49:09;;;;;;;;;;;;;;;23.19;50.63;100580.88;5050154;28;19950;-71
2023/08/06 04:51:34;;;;;;;;;;;;;;;23.23;50.58;100580.44;5057060;28;19935;-71
2023/08/06 04:53:59;;;;;;;;;;;;;;;23.21;50.65;100581.47;5081224;27;20062;-70
2023/08/06 04:56:25;;;;;;;;;;;;;;;23.21;50.65;100583.31;5051137;28;20433;-72
2023/08/06 04:58:50;;;;;;;;;;;;;;;23.19;50.63;100570.25;5056816;28;20008;-72
2023/08/06 05:01:16;;;;;;;;;;;;;;;23.22;50.33;100582.28;5056282;28;20415;-71
2023/08/06 05:03:41;;;;;;;;;;;;;;;23.19;50.52;100586.19;5053712;28;19926;-72
2023/08/06 05:06:06;;;;;;;;;;;;;;;23.18;50.47;100589.84;5049497;28;20430;-73
2023/08/06 05:08:32;;;;;;;;;;;;;;;23.20;50.46;100587.81;5052706;28;19939;-72
2023/08/06 05:10:57;;;;;;;;;;;;;;;23.20;50.31;100590.47;5050291;28;20055;-72
2023/08/06 05:13:22;;;;;;;;;;;;;;;23.21;50.51;100592.09;5052641;28;19938;-71
2023/08/06 05:15:48;;;;;;;;;;;;;;;23.23;50.41;100586.56;5055822;28;20021;-70
2023/08/06 05:18:13;;;;;;;;;;;;;;;23.23;50.32;100581.25;5058518;28;19979;-72
2023/08/06 05:20:41;;;;;;;;;;;;;;;23.23;50.47;100586.56;5048443;28;20463;-71
2023/08/06 05:23:07;;;;;;;;;;;;;;;23.20;50.63;100592.31;5049767;28;19941;-72
2023/08/06 05:25:34;;;;;;;;;;;;;;;23.21;50.27;100584.13;5056835;28;19937;-71
2023/08/06 05:28:01;;;;;;;;;;;;;;;23.22;50.48;100587.59;5056853;28;19991;-71
2023/08/06 05:30:26;;;;;;;;;;;;;;;23.20;50.34;100573.72;5057967;28;19978;-71
2023/08/06 05:32:52;;;;;;;;;;;;;;;23.20;50.48;100585.16;5051306;28;19952;-72
2023/08/06 05:35:17;;;;;;;;;;;;;;;23.23;50.43;100594.53;5085189;27;20080;-71
2023/08/06 05:37:42;;;;;;;;;;;;;;;23.20;50.35;100593.13;5047630;28;19977;-72
2023/08/06 05:40:08;;;;;;;;;;;;;;;23.21;50.44;100599.25;5054004;28;20715;-72
2023/08/06 05:42:33;;;;;;;;;;;;;;;23.23;50.48;100604.34;5053642;28;21421;-72
2023/08/06 05:44:59;;;;;;;;;;;;;;;23.22;50.52;100600.88;5060222;28;20392;-71
2023/08/06 05:47:24;;;;;;;;;;;;;;;23.23;50.43;100605.16;5057226;28;19944;-71
2023/08/06 05:49:49;;;;;;;;;;;;;;;23.21;50.52;100600.06;5052960;28;19954;-72
2023/08/06 05:52:15;;;;;;;;;;;;;;;23.24;50.29;100598.84;5088031;27;19945;-72
2023/08/06 05:54:42;;;;;;;;;;;;;;;23.17;50.46;100611.31;5053576;28;19939;-72
2023/08/06 05:57:08;;;;;;;;;;;;;;;23.18;50.54;100613.75;5047884;28;20348;-70
2023/08/06 05:59:33;;;;;;;;;;;;;;;23.18;50.38;100624.41;5056167;28;19951;-70
2023/08/06 06:01:58;;;;;;;;;;;;;;;23.25;50.21;100620.91;5055460;28;20027;-72
2023/08/06 06:04:25;;;;;;;;;;;;;;;23.26;50.32;100620.69;5055020;28;20608;-71
2023/08/06 06:06:50;;;;;;;;;;;;;;;23.29;50.36;100622.09;5064777;28;19937;-71
2023/08/06 06:09:16;;;;;;;;;;;;;;;23.35;50.09;100619.47;5059740;28;19949;-71
2023/08/06 06:11:41;;;;;;;;;;;;;;;23.35;50.08;100619.47;5054821;28;19940;-71
2023/08/06 06:14:06;;;;;;;;;;;;;;;23.37;49.93;100622.72;5051714;28;20570;-71
2023/08/06 06:16:32;;;;;;;;;;;;;;;23.38;49.88;100624.34;5046343;28;20380;-71
2023/08/06 06:18:57;;;;;;;;;;;;;;;23.39;50.14;100623.31;5062137;28;19956;-71
2023/08/06 06:21:23;;;;;;;;;;;;;;;23.43;49.90;100621.88;5079024;28;19941;-71
2023/08/06 06:23:48;;;;;;;;;;;;;;;23.43;49.94;100623.72;5054199;28;19928;-71
2023/08/06 06:26:14;;;;;;;;;;;;;;;23.45;49.88;100626.97;5046841;28;19986;-71
2023/08/06 06:28:39;;;;;;;;;;;;;;;23.44;49.99;100625.34;5054839;28;19994;-70
2023/08/06 06:31:05;;;;;;;;;;;;;;;23.40;50.01;100624.97;5055154;28;19943;-70
2023/08/06 06:33:30;;;;;;;;;;;;;;;23.43;50.12;100626.38;5072755;28;19935;-71
2023/08/06 06:35:55;;;;;;;;;;;;;;;23.43;50.21;100626.38;5051786;28;20340;-70
2023/08/06 06:38:21;;;;;;;;;;;;;;;23.44;50.11;100628.00;5053955;28;20067;-69
2023/08/06 06:40:56;;;;;;;;;;;;;;;23.44;49.74;100628.81;5057842;28;20002;-69
2023/08/06 06:43:22;;;;;;;;;;;;;;;23.46;49.70;100629.44;5058791;28;19941;-69
2023/08/06 06:45:52;;;;;;;;;;;;;;;23.43;49.75;100629.84;5061099;28;19932;-69
2023/08/06 06:48:17;;;;;;;;;;;;;;;23.42;49.82;100628.22;5053122;28;19925;-67
2023/08/06 06:50:42;;;;;;;;;;;;;;;23.46;49.57;100624.13;5053867;28;19957;-69
2023/08/06 06:53:08;;;;;;;;;;;;;;;23.41;49.84;100629.25;5056395;28;19934;-69
2023/08/06 06:55:33;;;;;;;;;;;;;;;23.45;49.92;100625.16;5058839;28;19964;-69
2023/08/06 06:57:58;;;;;;;;;;;;;;;23.46;49.70;100626.78;5051551;28;19932;-68
2023/08/06 07:00:24;;;;;;;;;;;;;;;23.45;49.73;100625.16;5054559;28;19936;-69
2023/08/06 07:02:49;;;;;;;;;;;;;;;23.51;49.70;100628.78;5062967;28;20431;-68
2023/08/06 07:05:14;;;;;;;;;;;;;;;23.46;50.18;100631.28;5056474;28;20197;-68
2023/08/06 07:07:40;;;;;;;;;;;;;;;23.45;50.34;100633.13;5057052;28;20014;-68
2023/08/06 07:10:05;;;;;;;;;;;;;;;23.43;50.21;100632.50;5055817;28;20492;-68
2023/08/06 07:12:31;;;;;;;;;;;;;;;23.45;50.16;100633.13;5056914;28;19937;-69
2023/08/06 07:14:56;;;;;;;;;;;;;;;23.43;50.48;100637.81;5052983;28;19981;-68
2023/08/06 07:17:21;;;;;;;;;;;;;;;23.45;50.49;100634.97;5050495;28;20658;-68
2023/08/06 07:19:47;;;;;;;;;;;;;;;23.44;50.50;100631.47;5058967;28;19938;-69
2023/08/06 07:22:12;;;;;;;;;;;;;;;23.43;50.39;100634.34;5054548;28;19936;-68
2023/08/06 07:24:37;;;;;;;;;;;;;;;23.48;50.37;100634.53;5052894;28;20009;-69
2023/08/06 07:27:03;;;;;;;;;;;;;;;23.45;50.52;100630.47;5049656;28;19947;-69
2023/08/06 07:29:28;;;;;;;;;;;;;;;23.46;50.41;100632.09;5056728;28;19961;-71
2023/08/06 07:31:55;;;;;;;;;;;;;;;23.50;50.28;100632.47;5062230;28;19961;-71
2023/08/06 07:34:20;;;;;;;;;;;;;;;23.48;50.30;100640.66;5050190;28;20055;-70
2023/08/06 07:36:46;;;;;;;;;;;;;;;23.43;50.58;100635.16;5057234;28;19944;-70
2023/08/06 07:39:11;;;;;;;;;;;;;;;23.42;50.56;100636.19;5055315;28;19937;-70
2023/08/06 07:41:37;;;;;;;;;;;;;;;23.40;50.73;100634.78;5059937;28;19952;-70
2023/08/06 07:44:02;;;;;;;;;;;;;;;23.40;50.49;100634.78;5066203;28;20374;-70
2023/08/06 07:46:27;;;;;;;;;;;;;;;23.38;50.54;100637.63;5056912;28;19960;-70
2023/08/06 07:48:53;;;;;;;;;;;;;;;23.37;50.49;100630.69;5065870;28;19977;-69
2023/08/06 07:51:18;;;;;;;;;;;;;;;23.41;50.44;100634.56;5055161;28;19972;-69
2023/08/06 07:53:44;;;;;;;;;;;;;;;23.40;50.53;100630.28;5057044;28;20328;-71
2023/08/06 07:56:10;;;;;;;;;;;;;;;23.40;50.41;100629.47;5057504;28;19938;-69
2023/08/06 07:58:35;;;;;;;;;;;;;;;23.42;50.29;100625.56;5052182;28;20022;-70
2023/08/06 08:01:01;;;;;;;;;;;;;;;23.41;50.38;100629.25;5057603;28;19945;-70
2023/08/06 08:03:26;;;;;;;;;;;;;;;23.42;50.46;100622.09;5057903;28;20288;-71
2023/08/06 08:05:56;;;;;;;;;;;;;;;23.42;50.40;100627.41;5059630;28;20361;-70
2023/08/06 08:08:21;;;;;;;;;;;;;;;23.44;50.41;100630.66;5049515;28;19940;-72
2023/08/06 08:10:46;;;;;;;;;;;;;;;23.41;50.40;100631.09;5060635;28;19947;-70
2023/08/06 08:13:12;;;;;;;;;;;;;;;23.41;50.52;100625.78;5047816;28;19929;-72
2023/08/06 08:15:37;;;;;;;;;;;;;;;23.42;50.30;100619.44;5058369;28;19931;-71
2023/08/06 08:18:02;;;;;;;;;;;;;;;23.41;50.56;100621.28;5056585;28;20021;-71
2023/08/06 08:20:31;;;;;;;;;;;;;;;23.42;50.60;100619.44;5055099;28;19947;-72
2023/08/06 08:22:57;;;;;;;;;;;;;;;23.40;50.63;100618.81;5060063;28;19965;-72
2023/08/06 08:25:22;;;;;;;;;;;;;;;23.37;50.83;100621.91;5052181;28;20044;-71
2023/08/06 08:27:48;;;;;;;;;;;;;;;23.34;50.71;100625.81;5062189;28;20087;-72
2023/08/06 08:30:13;;;;;;;;;;;;;;;23.34;50.79;100616.97;5085711;27;19954;-71
2023/08/06 08:32:38;;;;;;;;;;;;;;;23.31;51.03;100630.69;5061575;28;19938;-72
2023/08/06 08:35:04;;;;;;;;;;;;;;;23.30;50.81;100623.75;5048897;28;19935;-71
2023/08/06 08:37:29;;;;;;;;;;;;;;;23.33;50.86;100623.31;5073244;28;20021;-72
2023/08/06 08:39:55;;;;;;;;;;;;;;;23.32;50.66;100619.84;5075350;28;19933;-72
2023/08/06 08:42:21;;;;;;;;;;;;;;;23.33;50.74;100620.66;5072561;28;20333;-70
2023/08/06 08:44:46;;;;;;;;;;;;;;;23.34;50.68;100623.16;5060807;28;20878;-70
2023/08/06 08:47:12;;;;;;;;;;;;;;;23.35;50.87;100613.34;5054606;28;19937;-71
2023/08/06 08:49:38;;;;;;;;;;;;;;;23.13;50.70;100572.88;5056672;28;19960;-71
2023/08/06 08:52:10;;;;;;;;;;;;;;;23.37;50.58;100617.41;5054084;28;20294;-72
2023/08/06 08:54:37;;;;;;;;;;;;;;;23.41;50.56;100615.16;5051518;28;19991;-69
2023/08/06 08:57:03;;;;;;;;;;;;;;;23.41;50.71;100617.81;5054746;28;20362;-73
2023/08/06 08:59:28;;;;;;;;;;;;;;;23.43;50.48;100615.75;5049346;28;19927;-73
2023/08/06 09:01:54;;;;;;;;;;;;;;;23.43;50.49;100621.06;5053948;28;19977;-71
2023/08/06 09:04:20;;;;;;;;;;;;;;;23.42;50.54;100622.91;5050983;28;19994;-72
2023/08/06 09:06:47;;;;;;;;;;;;;;;23.44;50.44;100620.84;5048419;28;19931;-69
2023/08/06 09:09:15;;;;;;;;;;;;;;;23.42;50.71;100619.44;5056101;28;19952;-70
2023/08/06 09:11:44;;;;;;;;;;;;;;;23.46;50.41;100624.13;5043190;28;20640;-70
2023/08/06 09:14:11;;;;;;;;;;;;;;;23.44;50.54;100617.38;5053617;28;19936;-71
2023/08/06 09:16:36;;;;;;;;;;;;;;;23.46;50.64;100621.47;5048078;28;20393;-70
2023/08/06 09:19:08;;;;;;;;;;;;;;;23.49;50.62;100623.69;5091021;27;19943;-70
2023/08/06 09:21:36;;;;;;;;;;;;;;;23.50;50.49;100625.31;5051417;28;19933;-69
2023/08/06 09:24:01;;;;;;;;;;;;;;;23.50;50.60;100629.81;5055592;28;20451;-69
2023/08/06 09:26:32;;;;;;;;;;;;;;;23.50;50.39;100619.19;5050622;28;19934;-72
2023/08/06 09:28:59;;;;;;;;;;;;;;;23.52;50.60;100633.13;5052872;28;20044;-70
2023/08/06 09:31:24;;;;;;;;;;;;;;;23.53;50.27;100629.44;5051773;28;20049;-70
2023/08/06 09:33:50;;;;;;;;;;;;;;;23.54;50.64;100630.25;5051971;28;20023;-71
2023/08/06 09:36:15;;;;;;;;;;;;;;;23.54;50.42;100623.09;5084164;27;20394;-70
2023/08/06 09:38:42;;;;;;;;;;;;;;;23.55;50.42;100631.88;5060795;28;19936;-70
2023/08/06 09:41:08;;;;;;;;;;;;;;;23.55;50.35;100635.34;5047830;28;19973;-71
2023/08/06 09:43:40;;;;;;;;;;;;;;;23.57;50.35;100637.81;5047855;28;19935;-71
2023/08/06 09:46:16;;;;;;;;;;;;;;;23.58;50.28;100636.81;5051773;28;19934;-71
2023/08/06 09:48:44;;;;;;;;;;;;;;;23.60;50.29;100637.41;5048990;28;19937;-71
2023/08/06 09:51:10;;;;;;;;;;;;;;;23.60;50.20;100637.41;5053005;28;19940;-70
2023/08/06 09:53:36;;;;;;;;;;;;;;;23.60;50.13;100634.75;5053048;28;19936;-71
2023/08/06 09:56:02;;;;;;;;;;;;;;;23.60;50.02;100632.91;5052780;28;19979;-70
2023/08/06 09:58:28;;;;;;;;;;;;;;;23.61;50.07;100633.72;5060837;28;19972;-70
2023/08/06 10:00:53;;;;;;;;;;;;;;;23.61;50.08;100647.00;5065391;28;19933;-71
2023/08/06 10:03:19;;;;;;;;;;;;;;;23.60;50.08;100642.72;5062617;28;19929;-70
2023/08/06 10:05:45;;;;;;;;;;;;;;;23.63;50.04;100643.13;5083076;27;20520;-70
2023/08/06 10:08:10;;;;;;;;;;;;;;;23.65;49.91;100638.41;5051417;28;20408;-70
2023/08/06 10:10:36;;;;;;;;;;;;;;;23.66;49.84;100633.91;5049389;28;20567;-70
2023/08/06 10:13:04;;;;;;;;;;;;;;;23.64;49.95;100641.28;5051551;28;20004;-71
2023/08/06 10:15:31;;;;;;;;;;;;;;;23.65;49.83;100630.44;5054301;28;20796;-70
2023/08/06 10:17:57;;;;;;;;;;;;;;;23.65;49.96;100638.41;5058586;28;19933;-70
2023/08/06 10:20:23;;;;;;;;;;;;;;;23.63;49.88;100640.47;5062012;28;20295;-70
2023/08/06 10:22:59;;;;;;;;;;;;;;;23.64;49.83;100641.28;5063854;28;20035;-70
2023/08/06 10:25:25;;;;;;;;;;;;;;;23.64;49.84;100633.28;5070654;28;20698;-70
2023/08/06 10:27:50;;;;;;;;;;;;;;;23.66;49.76;100633.91;5049554;28;19932;-69
2023/08/06 10:30:25;;;;;;;;;;;;;;;23.66;49.90;100633.91;5078972;28;20553;-71
2023/08/06 10:32:51;;;;;;;;;;;;;;;23.67;49.88;100638.19;5069407;28;19987;-70
2023/08/06 10:35:35;;;;;;;;;;;;;;;23.67;49.87;100638.19;5065209;28;20362;-70
2023/08/06 10:38:04;;;;;;;;;;;;;;;23.68;49.89;100637.97;5088531;28;20419;-71
2023/08/06 10:40:30;;;;;;;;;;;;;;;23.63;50.25;100635.13;5053143;28;20438;-70
2023/08/06 10:42:58;;;;;;;;;;;;;;;23.66;50.41;100628.59;5055697;28;19929;-69
2023/08/06 10:45:28;;;;;;;;;;;;;;;23.69;50.24;100646.78;5062613;28;19936;-70
2023/08/06 10:47:53;;;;;;;;;;;;;;;23.75;49.83;100636.13;5056838;28;19958;-70
2023/08/06 10:50:19;;;;;;;;;;;;;;;23.77;49.80;100638.56;5056596;28;19956;-70
2023/08/06 10:52:45;;;;;;;;;;;;;;;23.79;49.65;100644.50;5057572;28;19934;-71
2023/08/06 10:55:10;;;;;;;;;;;;;;;23.77;49.57;100639.41;5061250;28;19979;-71
2023/08/06 10:57:36;;;;;;;;;;;;;;;23.81;49.61;100639.78;5047039;28;20036;-71
2023/08/06 11:00:04;;;;;;;;;;;;;;;23.83;49.61;100640.38;5052262;28;20357;-71
2023/08/06 11:02:33;;;;;;;;;;;;;;;23.78;49.63;100640.22;5058239;28;19952;-71
2023/08/06 11:04:58;;;;;;;;;;;;;;;23.83;49.56;100636.91;5055112;28;19943;-71
2023/08/06 11:07:28;;;;;;;;;;;;;;;23.83;49.53;100640.38;5054375;28;19979;-71
2023/08/06 11:10:00;;;;;;;;;;;;;;;23.84;49.53;100633.22;5050303;28;20461;-71
2023/08/06 11:12:26;;;;;;;;;;;;;;;23.82;49.51;100644.06;5047019;28;19926;-71
2023/08/06 11:14:51;;;;;;;;;;;;;;;23.87;49.51;100632.78;5061780;28;19986;-71
2023/08/06 11:17:16;;;;;;;;;;;;;;;23.85;49.43;100633.00;5054371;28;19985;-72
2023/08/06 11:19:42;;;;;;;;;;;;;;;23.85;49.52;100632.19;5052629;28;19934;-70
2023/08/06 11:22:07;;;;;;;;;;;;;;;23.84;49.54;100631.38;5055778;28;19945;-70
2023/08/06 11:24:32;;;;;;;;;;;;;;;23.84;49.54;100633.22;5046504;28;20042;-71
2023/08/06 11:26:58;;;;;;;;;;;;;;;23.86;49.35;100634.63;5046253;28;19934;-69
2023/08/06 11:29:24;;;;;;;;;;;;;;;23.85;49.44;100624.22;5090200;27;19954;-70
2023/08/06 11:31:49;;;;;;;;;;;;;;;23.86;49.45;100617.88;5059303;28;19934;-70
2023/08/06 11:34:14;;;;;;;;;;;;;;;23.85;49.68;100621.56;5048682;28;19937;-70
2023/08/06 11:36:40;;;;;;;;;;;;;;;23.86;49.60;100626.66;5079791;27;20486;-69
2023/08/06 11:39:06;;;;;;;;;;;;;;;23.83;49.62;100628.94;5052489;28;19938;-70
2023/08/06 11:41:32;;;;;;;;;;;;;;;23.83;49.63;100628.94;5052531;28;20394;-70
2023/08/06 11:43:58;;;;;;;;;;;;;;;23.80;49.72;100627.50;5077452;27;19936;-70
2023/08/06 11:46:24;;;;;;;;;;;;;;;23.81;49.67;100629.97;5050506;28;20608;-70
2023/08/06 11:48:56;;;;;;;;;;;;;;;23.85;49.60;100630.34;5049592;28;19930;-70
2023/08/06 11:51:28;;;;;;;;;;;;;;;23.84;49.56;100630.56;5049477;28;19932;-70
2023/08/06 11:53:56;;;;;;;;;;;;;;;23.87;49.71;100638.13;5051810;28;19934;-70
2023/08/06 11:56:22;;;;;;;;;;;;;;;23.85;49.63;100635.66;5048748;28;19943;-69
2023/08/06 11:58:47;;;;;;;;;;;;;;;23.83;49.64;100631.59;5048040;28;19939;-71
2023/08/06 12:01:13;;;;;;;;;;;;;;;23.88;49.74;100640.59;5049339;28;19941;-69
2023/08/06 12:03:42;;;;;;;;;;;;;;;23.88;49.50;100640.59;5052347;28;20281;-69
2023/08/06 12:06:07;;;;;;;;;;;;;;;23.89;49.44;100638.75;5055688;28;19929;-71
2023/08/06 12:08:33;;;;;;;;;;;;;;;23.86;49.58;100636.47;5049201;28;19930;-69
2023/08/06 12:10:58;;;;;;;;;;;;;;;23.87;49.42;100628.28;5058386;28;19954;-70
2023/08/06 12:13:23;;;;;;;;;;;;;;;23.89;49.62;100631.59;5051058;28;19930;-70
2023/08/06 12:15:49;;;;;;;;;;;;;;;23.90;49.43;100630.56;5045423;28;20403;-70
2023/08/06 12:18:14;;;;;;;;;;;;;;;23.92;49.47;100625.84;5056256;28;20783;-70
2023/08/06 12:20:40;;;;;;;;;;;;;;;23.94;49.45;100626.44;5045705;28;19957;-70
2023/08/06 12:23:05;;;;;;;;;;;;;;;23.95;49.50;100624.59;5043114;28;19936;-72
2023/08/06 12:25:30;;;;;;;;;;;;;;;23.92;49.34;100625.84;5034221;28;19935;-70
2023/08/06 12:27:56;;;;;;;;;;;;;;;23.95;49.63;100624.59;5050561;28;21079;-70
2023/08/06 12:30:21;;;;;;;;;;;;;;;23.96;49.52;100627.03;5052072;28;20863;-70